This is the latest recevied weather packets stored in our database for station/object SV2RIM-2. If no packets are shown the sender has not sent any weather packets the latest 10 day(s).
| Time | Temp. | Humidity | Pressure | Rain* | Wind** | Luminosity | Snow |
|---|---|---|---|---|---|---|---|
| 1777554919 | 12.22° C | 64% | 1014.2 hPa | - | - | - | - |
| 1777554319 | 13.89° C | 60% | 1014.1 hPa | - | - | - | - |
| 1777553719 | 15° C | 57% | 1014.2 hPa | - | - | - | - |
| 1777553119 | 15.56° C | 56% | 1014.2 hPa | - | - | - | - |
| 1777552519 | 16.67° C | 56% | 1014.2 hPa | - | - | - | - |
| 1777551919 | 18.33° C | 55% | 1014.2 hPa | - | - | - | - |
| 1777551319 | 20.56° C | 52% | 1014.2 hPa | - | - | - | - |
| 1777550719 | 22.78° C | 47% | 1014.2 hPa | - | - | - | - |
| 1777550119 | 22.78° C | 49% | 1014.4 hPa | - | - | - | - |
| 1777549519 | 23.33° C | 48% | 1014.6 hPa | - | - | - | - |
| 1777548919 | 23.33° C | 47% | 1014.7 hPa | - | - | - | - |
| 1777548319 | 22.78° C | 47% | 1014.8 hPa | - | - | - | - |
| 1777547719 | 22.22° C | 49% | 1014.8 hPa | - | - | - | - |
| 1777547119 | 22.22° C | 49% | 1014.8 hPa | - | - | - | - |
| 1777546519 | 22.22° C | 50% | 1014.8 hPa | - | - | - | - |
| 1777545919 | 22.78° C | 51% | 1015 hPa | - | - | - | - |
| 1777545319 | 23.89° C | 48% | 1015.1 hPa | - | - | - | - |
| 1777544719 | 23.89° C | 49% | 1015.1 hPa | - | - | - | - |
| 1777544119 | 23.33° C | 50% | 1015.2 hPa | - | - | - | - |
| 1777543519 | 23.89° C | 49% | 1015.2 hPa | - | - | - | - |
| 1777542919 | 23.89° C | 49% | 1015.4 hPa | - | - | - | - |
| 1777542319 | 23.89° C | 47% | 1015.5 hPa | - | - | - | - |
| 1777541719 | 23.33° C | 48% | 1015.6 hPa | - | - | - | - |
| 1777541119 | 22.78° C | 50% | 1015.6 hPa | - | - | - | - |
| 1777540519 | 21.67° C | 53% | 1015.7 hPa | - | - | - | - |
* Rain since midnight (hover to see other rain measurements)
** Current wind speed in m/s (hover to see current wind gust speed)